Time;durP1;ratioP1;P1;durP2;ratioP2;P2;SDS_P1;SDS_P2;PMS_P1;PMS_P2;Temp;Humidity;BMP_temperature;BMP_pressure;BME280_temperature;BME280_humidity;BME280_pressure;Samples;Min_cycle;Max_cycle;Signal;HPM_P1;HPM_P2
2023/06/06 00:00:57;;;;;;;;;12.50;8.25;;;;;;;;5070665;28;29521;-56
2023/06/06 00:03:25;;;;;;;;;12.80;11.80;;;;;;;;5070532;28;30501;-54
2023/06/06 00:05:50;;;;;;;;;14.60;11.20;;;;;;;;5086058;28;29670;-55
2023/06/06 00:08:15;;;;;;;;;13.50;9.00;;;;;;;;5068861;28;29346;-55
2023/06/06 00:10:41;;;;;;;;;14.00;13.50;;;;;;;;5070544;28;29850;-55
2023/06/06 00:13:06;;;;;;;;;15.50;12.00;;;;;;;;5070628;28;29429;-57
2023/06/06 00:15:31;;;;;;;;;11.75;10.50;;;;;;;;5070238;28;29082;-53
2023/06/06 00:17:58;;;;;;;;;17.00;12.25;;;;;;;;5070798;28;28637;-54
2023/06/06 00:20:24;;;;;;;;;14.60;11.60;;;;;;;;5070381;28;29283;-54
2023/06/06 00:22:53;;;;;;;;;16.50;12.75;;;;;;;;5068677;28;31043;-56
2023/06/06 00:25:18;;;;;;;;;12.20;12.20;;;;;;;;5070465;28;28915;-55
2023/06/06 00:27:43;;;;;;;;;12.25;11.25;;;;;;;;5070244;28;29091;-54
2023/06/06 00:30:09;;;;;;;;;11.75;11.75;;;;;;;;5070584;28;29518;-56
2023/06/06 00:32:35;;;;;;;;;13.25;10.00;;;;;;;;5069545;28;29669;-57
2023/06/06 00:35:00;;;;;;;;;15.75;9.25;;;;;;;;5068675;28;29305;-54
2023/06/06 00:37:25;;;;;;;;;7.25;6.00;;;;;;;;5070283;28;29305;-55
2023/06/06 00:39:51;;;;;;;;;12.25;12.25;;;;;;;;5070325;28;29104;-55
2023/06/06 00:42:16;;;;;;;;;13.25;12.75;;;;;;;;5059494;28;45398;-56
2023/06/06 00:44:41;;;;;;;;;12.75;11.75;;;;;;;;5055472;28;45952;-57
2023/06/06 00:47:07;;;;;;;;;12.00;10.50;;;;;;;;5055702;28;45335;-57
2023/06/06 00:49:32;;;;;;;;;13.00;10.50;;;;;;;;5054269;28;45639;-54
2023/06/06 00:51:57;;;;;;;;;15.50;13.25;;;;;;;;5053916;28;46548;-56
2023/06/06 00:54:22;;;;;;;;;9.00;7.00;;;;;;;;5037214;28;45481;-56
2023/06/06 00:56:49;;;;;;;;;14.00;10.50;;;;;;;;5036828;28;45308;-57
2023/06/06 00:59:15;;;;;;;;;11.60;8.80;;;;;;;;5062107;28;45651;-56
2023/06/06 01:01:41;;;;;;;;;13.60;10.80;;;;;;;;5070070;28;29397;-57
2023/06/06 01:04:10;;;;;;;;;14.75;12.00;;;;;;;;5070314;28;29080;-55
2023/06/06 01:06:38;;;;;;;;;16.80;13.80;;;;;;;;5068828;28;29228;-55
2023/06/06 01:09:07;;;;;;;;;12.80;10.80;;;;;;;;5068462;28;42477;-56
2023/06/06 01:11:39;;;;;;;;;13.20;12.20;;;;;;;;5054070;28;45373;-58
2023/06/06 01:14:35;;;;;;;;;13.40;12.40;;;;;;;;5055323;28;45278;-56
2023/06/06 01:17:02;;;;;;;;;12.60;9.60;;;;;;;;5041952;28;45880;-56
2023/06/06 01:19:29;;;;;;;;;12.40;11.80;;;;;;;;5053885;28;45475;-57
2023/06/06 01:21:55;;;;;;;;;17.40;14.00;;;;;;;;5053484;28;46605;-56
2023/06/06 01:24:20;;;;;;;;;13.75;13.00;;;;;;;;5055301;28;45366;-56
2023/06/06 01:26:46;;;;;;;;;15.25;14.25;;;;;;;;5053529;28;45506;-56
2023/06/06 01:29:11;;;;;;;;;13.00;11.00;;;;;;;;5053973;28;45507;-56
2023/06/06 01:31:43;;;;;;;;;15.25;15.25;;;;;;;;5036824;28;47046;-56
2023/06/06 01:34:15;;;;;;;;;12.60;12.60;;;;;;;;5054476;28;45205;-57
2023/06/06 01:36:41;;;;;;;;;15.80;13.40;;;;;;;;5055412;28;45387;-56
2023/06/06 01:39:07;;;;;;;;;16.60;15.80;;;;;;;;5053483;28;45369;-57
2023/06/06 01:41:33;;;;;;;;;17.60;15.00;;;;;;;;5053229;28;48925;-57
2023/06/06 01:43:59;;;;;;;;;16.40;13.80;;;;;;;;5055098;28;45381;-56
2023/06/06 01:46:24;;;;;;;;;14.75;14.75;;;;;;;;5054754;28;45335;-56
2023/06/06 01:48:49;;;;;;;;;15.00;12.25;;;;;;;;5053649;28;45357;-55
2023/06/06 01:51:15;;;;;;;;;12.00;10.50;;;;;;;;5054757;28;45760;-56
2023/06/06 01:53:40;;;;;;;;;16.75;13.75;;;;;;;;5054897;28;45417;-56
2023/06/06 01:56:12;;;;;;;;;15.50;12.25;;;;;;;;5054505;28;45840;-55
2023/06/06 01:58:37;;;;;;;;;17.00;13.60;;;;;;;;5055005;28;45592;-57
2023/06/06 02:01:02;;;;;;;;;16.00;13.50;;;;;;;;5054587;28;45280;-57
2023/06/06 02:03:28;;;;;;;;;19.00;16.00;;;;;;;;5026549;28;45394;-57
2023/06/06 02:05:53;;;;;;;;;17.75;15.25;;;;;;;;5070678;28;45220;-56
2023/06/06 02:08:20;;;;;;;;;15.00;13.00;;;;;;;;5054804;28;45315;-53
2023/06/06 02:10:46;;;;;;;;;19.00;16.60;;;;;;;;5053550;28;45869;-56
2023/06/06 02:13:11;;;;;;;;;15.50;14.50;;;;;;;;5054611;28;45356;-55
2023/06/06 02:15:36;;;;;;;;;13.75;13.25;;;;;;;;5054933;28;45668;-53
2023/06/06 02:18:01;;;;;;;;;18.00;15.50;;;;;;;;5054928;28;45405;-51
2023/06/06 02:20:27;;;;;;;;;15.50;11.50;;;;;;;;5054020;28;45395;-51
2023/06/06 02:22:52;;;;;;;;;16.50;12.50;;;;;;;;5054405;28;45358;-57
2023/06/06 02:25:17;;;;;;;;;16.75;13.00;;;;;;;;5054558;28;45388;-56
2023/06/06 02:27:44;;;;;;;;;13.25;13.25;;;;;;;;5054407;28;45451;-53
2023/06/06 02:30:10;;;;;;;;;18.60;14.00;;;;;;;;5054374;28;45762;-54
2023/06/06 02:32:35;;;;;;;;;12.25;11.25;;;;;;;;5052624;28;45386;-52
2023/06/06 02:35:03;;;;;;;;;14.25;13.25;;;;;;;;5054427;28;45408;-52
2023/06/06 02:37:28;;;;;;;;;15.00;13.00;;;;;;;;5054343;28;45415;-53
2023/06/06 02:39:53;;;;;;;;;18.00;14.25;;;;;;;;5053956;28;46280;-56
2023/06/06 02:42:19;;;;;;;;;21.25;16.00;;;;;;;;5052768;28;45464;-54
2023/06/06 02:44:44;;;;;;;;;16.25;14.00;;;;;;;;5054374;28;45344;-55
2023/06/06 02:47:09;;;;;;;;;16.75;14.75;;;;;;;;5054256;28;45459;-53
2023/06/06 02:49:35;;;;;;;;;17.25;15.00;;;;;;;;5054218;28;45726;-53
2023/06/06 02:52:00;;;;;;;;;17.25;13.50;;;;;;;;5054083;28;45371;-53
2023/06/06 02:54:25;;;;;;;;;18.00;15.00;;;;;;;;5054069;28;45375;-56
2023/06/06 02:56:51;;;;;;;;;17.25;15.00;;;;;;;;5053990;28;45202;-54
2023/06/06 02:59:16;;;;;;;;;18.75;14.25;;;;;;;;5053822;28;45991;-55
2023/06/06 03:01:44;;;;;;;;;14.00;12.25;;;;;;;;5053654;28;45159;-53
2023/06/06 03:04:12;;;;;;;;;15.00;14.40;;;;;;;;5054153;28;45300;-56
2023/06/06 03:06:41;;;;;;;;;16.00;13.20;;;;;;;;5053933;28;45450;-56
2023/06/06 03:09:07;;;;;;;;;20.20;16.00;;;;;;;;5053351;28;46339;-56
2023/06/06 03:11:32;;;;;;;;;14.60;14.60;;;;;;;;5052330;28;45522;-56
2023/06/06 03:13:58;;;;;;;;;17.00;16.00;;;;;;;;5053873;28;45449;-55
2023/06/06 03:16:26;;;;;;;;;13.50;12.50;;;;;;;;5052896;28;45380;-56
2023/06/06 03:18:51;;;;;;;;;15.80;15.00;;;;;;;;5052279;28;47499;-56
2023/06/06 03:21:17;;;;;;;;;14.75;12.25;;;;;;;;5054435;28;45280;-57
2023/06/06 03:23:42;;;;;;;;;15.50;14.50;;;;;;;;5057318;28;45254;-56
2023/06/06 03:26:08;;;;;;;;;20.00;17.75;;;;;;;;5057044;28;45246;-56
2023/06/06 03:28:34;;;;;;;;;16.00;16.00;;;;;;;;5056954;28;46467;-55
2023/06/06 03:30:59;;;;;;;;;20.75;17.50;;;;;;;;5057011;28;45351;-57
2023/06/06 03:33:24;;;;;;;;;24.00;16.75;;;;;;;;5056834;28;45369;-57
2023/06/06 03:35:50;;;;;;;;;19.00;17.00;;;;;;;;5057126;28;45234;-58
2023/06/06 03:38:15;;;;;;;;;15.00;12.75;;;;;;;;5056744;28;45285;-56
2023/06/06 03:40:40;;;;;;;;;24.25;16.50;;;;;;;;5072235;28;45189;-54
2023/06/06 03:43:05;;;;;;;;;23.00;19.75;;;;;;;;5056582;28;45171;-56
2023/06/06 03:45:31;;;;;;;;;22.75;15.75;;;;;;;;5055699;28;45299;-52
2023/06/06 03:47:56;;;;;;;;;15.75;15.25;;;;;;;;5072260;28;45262;-53
2023/06/06 03:50:21;;;;;;;;;13.50;13.50;;;;;;;;5056632;28;45151;-56
2023/06/06 03:52:47;;;;;;;;;16.50;14.25;;;;;;;;5056412;28;45396;-54
2023/06/06 03:55:13;;;;;;;;;19.25;18.00;;;;;;;;5056767;28;45358;-56
2023/06/06 03:57:38;;;;;;;;;19.75;17.00;;;;;;;;5071361;28;45637;-57
2023/06/06 04:00:10;;;;;;;;;24.25;20.75;;;;;;;;5055956;28;45447;-57
2023/06/06 04:02:36;;;;;;;;;19.00;13.00;;;;;;;;5070948;28;45439;-57
2023/06/06 04:05:02;;;;;;;;;23.25;20.00;;;;;;;;5056229;28;45495;-53
2023/06/06 04:07:28;;;;;;;;;21.60;18.40;;;;;;;;5055723;28;46115;-55
2023/06/06 04:09:54;;;;;;;;;17.00;17.00;;;;;;;;5056133;28;45412;-55
2023/06/06 04:12:19;;;;;;;;;19.50;18.25;;;;;;;;5056061;28;45310;-55
2023/06/06 04:14:44;;;;;;;;;21.75;18.25;;;;;;;;5056038;28;45390;-57
2023/06/06 04:17:10;;;;;;;;;17.75;15.75;;;;;;;;5055772;28;46472;-55
2023/06/06 04:19:36;;;;;;;;;19.00;19.00;;;;;;;;5055722;28;45418;-56
2023/06/06 04:22:02;;;;;;;;;22.40;19.20;;;;;;;;5055815;28;45426;-56
2023/06/06 04:24:28;;;;;;;;;17.20;16.20;;;;;;;;5054280;28;45546;-56
2023/06/06 04:26:53;;;;;;;;;19.25;17.00;;;;;;;;5055728;28;46624;-55
2023/06/06 04:29:19;;;;;;;;;19.75;18.00;;;;;;;;5055259;28;45424;-55
2023/06/06 04:31:44;;;;;;;;;23.75;17.75;;;;;;;;5054689;28;45334;-56
2023/06/06 04:34:10;;;;;;;;;22.25;15.25;;;;;;;;5055736;28;45509;-57
2023/06/06 04:36:38;;;;;;;;;21.50;17.25;;;;;;;;5055425;28;45404;-56
2023/06/06 04:39:03;;;;;;;;;24.80;22.00;;;;;;;;5055342;28;45470;-56
2023/06/06 04:41:33;;;;;;;;;23.75;20.75;;;;;;;;5055392;28;45401;-56
2023/06/06 04:43:59;;;;;;;;;19.40;17.60;;;;;;;;5056137;28;45514;-56
2023/06/06 04:46:24;;;;;;;;;24.75;21.25;;;;;;;;5055138;28;47483;-52
2023/06/06 04:48:52;;;;;;;;;28.75;22.25;;;;;;;;5055559;28;45366;-54
2023/06/06 04:51:17;;;;;;;;;31.00;23.40;;;;;;;;5055636;28;45288;-52
2023/06/06 04:53:44;;;;;;;;;23.00;21.00;;;;;;;;5054393;28;45961;-58
2023/06/06 04:56:11;;;;;;;;;23.40;22.20;;;;;;;;5053951;28;46610;-58
2023/06/06 04:58:36;;;;;;;;;25.60;22.00;;;;;;;;5054886;28;45433;-54
2023/06/06 05:01:02;;;;;;;;;28.75;24.25;;;;;;;;5055685;28;45735;-55
2023/06/06 05:03:27;;;;;;;;;23.75;20.50;;;;;;;;5055219;28;45538;-57
2023/06/06 05:05:53;;;;;;;;;20.00;20.00;;;;;;;;5055593;28;45305;-57
2023/06/06 05:08:19;;;;;;;;;33.00;26.75;;;;;;;;5053951;28;45329;-57
2023/06/06 05:10:44;;;;;;;;;29.00;24.20;;;;;;;;5055294;28;45300;-54
2023/06/06 05:13:09;;;;;;;;;24.00;22.75;;;;;;;;5055616;28;45565;-57
2023/06/06 05:15:35;;;;;;;;;32.75;29.50;;;;;;;;5054989;28;46514;-57
2023/06/06 05:18:00;;;;;;;;;29.75;27.00;;;;;;;;5055390;28;45316;-57
2023/06/06 05:20:25;;;;;;;;;36.25;29.75;;;;;;;;5054947;28;45195;-58
2023/06/06 05:22:51;;;;;;;;;34.50;29.25;;;;;;;;5055049;28;45470;-56
2023/06/06 05:25:16;;;;;;;;;30.00;27.50;;;;;;;;5053804;28;46501;-57
2023/06/06 05:27:41;;;;;;;;;38.75;30.50;;;;;;;;5053317;28;45469;-57
2023/06/06 05:30:07;;;;;;;;;20.25;19.50;;;;;;;;5055083;28;45290;-56
2023/06/06 05:32:32;;;;;;;;;35.75;30.00;;;;;;;;5055222;28;45767;-56
2023/06/06 05:35:01;;;;;;;;;38.00;30.25;;;;;;;;5054915;28;46310;-57
2023/06/06 05:37:28;;;;;;;;;27.40;25.60;;;;;;;;5054766;28;45336;-56
2023/06/06 05:39:53;;;;;;;;;30.00;27.80;;;;;;;;5054850;28;45316;-58
2023/06/06 05:42:18;;;;;;;;;29.25;26.00;;;;;;;;5054841;28;45217;-55
2023/06/06 05:44:43;;;;;;;;;34.50;29.00;;;;;;;;5053141;28;46102;-57
2023/06/06 05:47:09;;;;;;;;;32.25;28.75;;;;;;;;5054498;28;45364;-55
2023/06/06 05:49:34;;;;;;;;;33.00;28.75;;;;;;;;5054754;28;45386;-57
2023/06/06 05:52:01;;;;;;;;;34.25;29.50;;;;;;;;5054885;28;45259;-57
2023/06/06 05:54:26;;;;;;;;;29.20;27.80;;;;;;;;5069813;28;45361;-53
2023/06/06 05:56:51;;;;;;;;;42.50;30.00;;;;;;;;5054485;28;45146;-57
2023/06/06 05:59:17;;;;;;;;;34.25;29.75;;;;;;;;5054517;28;45256;-56
2023/06/06 06:01:42;;;;;;;;;31.50;29.75;;;;;;;;5054800;28;45559;-58
2023/06/06 06:04:08;;;;;;;;;32.75;28.75;;;;;;;;5054512;28;46086;-57
2023/06/06 06:06:34;;;;;;;;;26.50;24.50;;;;;;;;5070072;28;45338;-53
2023/06/06 06:09:02;;;;;;;;;35.00;29.60;;;;;;;;5054435;28;45364;-52
2023/06/06 06:11:27;;;;;;;;;29.20;28.00;;;;;;;;5054522;28;45374;-54
2023/06/06 06:13:52;;;;;;;;;28.00;24.75;;;;;;;;5054283;28;45376;-56
2023/06/06 06:16:17;;;;;;;;;34.00;29.25;;;;;;;;5054365;28;45234;-57
2023/06/06 06:18:43;;;;;;;;;38.75;31.25;;;;;;;;5052736;28;45756;-53
2023/06/06 06:21:08;;;;;;;;;35.50;32.00;;;;;;;;5054393;28;45202;-56
2023/06/06 06:23:34;;;;;;;;;33.75;30.25;;;;;;;;5053917;28;45580;-57
2023/06/06 06:25:59;;;;;;;;;38.50;29.75;;;;;;;;5054391;28;45353;-56
2023/06/06 06:28:25;;;;;;;;;31.00;27.75;;;;;;;;5053800;28;45244;-56
2023/06/06 06:30:50;;;;;;;;;41.00;34.75;;;;;;;;5054285;28;45547;-56
2023/06/06 06:33:16;;;;;;;;;30.75;26.75;;;;;;;;5053719;28;45608;-53
2023/06/06 06:35:42;;;;;;;;;29.80;26.00;;;;;;;;5053928;28;45328;-56
2023/06/06 06:38:07;;;;;;;;;36.25;32.50;;;;;;;;5052696;28;45552;-53
2023/06/06 06:40:32;;;;;;;;;38.50;33.50;;;;;;;;5031577;28;45624;-56
2023/06/06 06:42:58;;;;;;;;;44.75;36.00;;;;;;;;5044847;28;46609;-53
2023/06/06 06:45:24;;;;;;;;;30.50;28.00;;;;;;;;5053836;28;45472;-56
2023/06/06 06:47:49;;;;;;;;;35.80;31.20;;;;;;;;5054078;28;45438;-56
2023/06/06 06:50:14;;;;;;;;;40.75;30.75;;;;;;;;5054033;28;45377;-54
2023/06/06 06:52:40;;;;;;;;;48.75;35.75;;;;;;;;5052528;28;46091;-55
2023/06/06 06:55:05;;;;;;;;;39.75;33.25;;;;;;;;5053906;28;45355;-55
2023/06/06 06:57:31;;;;;;;;;34.75;30.25;;;;;;;;5057359;28;45439;-56
2023/06/06 06:59:56;;;;;;;;;36.25;31.25;;;;;;;;5057651;28;45593;-56
2023/06/06 07:02:23;;;;;;;;;38.75;34.25;;;;;;;;5055752;28;46631;-57
2023/06/06 07:04:48;;;;;;;;;37.00;32.60;;;;;;;;5057281;28;45381;-54
2023/06/06 07:07:14;;;;;;;;;34.00;31.00;;;;;;;;5057560;28;45665;-52
2023/06/06 07:09:39;;;;;;;;;39.25;32.75;;;;;;;;5057485;28;45158;-51
2023/06/06 07:12:07;;;;;;;;;38.50;32.00;;;;;;;;5056805;28;45670;-57
2023/06/06 07:14:32;;;;;;;;;33.40;31.00;;;;;;;;5057240;28;45391;-55
2023/06/06 07:16:58;;;;;;;;;33.50;29.50;;;;;;;;5056327;28;45498;-56
2023/06/06 07:19:24;;;;;;;;;39.75;32.00;;;;;;;;5055604;28;45426;-55
2023/06/06 07:21:49;;;;;;;;;37.75;33.50;;;;;;;;5055812;28;47549;-56
2023/06/06 07:24:16;;;;;;;;;34.00;29.50;;;;;;;;5056904;28;45407;-52
2023/06/06 07:26:42;;;;;;;;;35.00;31.40;;;;;;;;5055931;28;45777;-56
2023/06/06 07:29:08;;;;;;;;;35.80;31.40;;;;;;;;5055872;28;45842;-54
2023/06/06 07:31:33;;;;;;;;;39.75;33.75;;;;;;;;5055389;28;47124;-54
2023/06/06 07:33:59;;;;;;;;;37.50;31.75;;;;;;;;5056688;28;45310;-55
2023/06/06 07:36:25;;;;;;;;;40.40;32.80;;;;;;;;5056613;28;45297;-53
2023/06/06 07:38:50;;;;;;;;;36.00;32.25;;;;;;;;5056829;28;45550;-55
2023/06/06 07:41:16;;;;;;;;;35.75;30.00;;;;;;;;5056284;28;45690;-55
2023/06/06 07:43:41;;;;;;;;;39.00;32.50;;;;;;;;5037770;28;45428;-57
2023/06/06 07:46:06;;;;;;;;;39.50;32.25;;;;;;;;5034492;28;45230;-56
2023/06/06 07:48:32;;;;;;;;;42.50;32.75;;;;;;;;5036594;28;45457;-56
2023/06/06 07:50:57;;;;;;;;;38.00;33.00;;;;;;;;5044800;28;46870;-54
2023/06/06 07:53:23;;;;;;;;;38.00;32.50;;;;;;;;5049732;28;45506;-58
2023/06/06 07:55:48;;;;;;;;;36.25;32.50;;;;;;;;5051223;28;45424;-57
2023/06/06 07:58:14;;;;;;;;;37.25;32.00;;;;;;;;5047136;28;45556;-58
2023/06/06 08:00:40;;;;;;;;;37.75;32.00;;;;;;;;5039980;28;45392;-59
2023/06/06 08:03:07;;;;;;;;;43.80;36.00;;;;;;;;5053373;28;45507;-58
2023/06/06 08:05:33;;;;;;;;;38.00;30.80;;;;;;;;5054397;28;45501;-57
2023/06/06 08:07:59;;;;;;;;;38.80;33.00;;;;;;;;5054568;28;45306;-57
2023/06/06 08:10:25;;;;;;;;;35.00;31.25;;;;;;;;5050502;28;47309;-58
2023/06/06 08:12:50;;;;;;;;;40.00;32.50;;;;;;;;5053512;28;45417;-58
2023/06/06 08:15:15;;;;;;;;;38.00;31.25;;;;;;;;5055260;28;45345;-58
2023/06/06 08:17:41;;;;;;;;;41.50;32.00;;;;;;;;5053699;28;45283;-59
2023/06/06 08:20:08;;;;;;;;;36.75;32.25;;;;;;;;5053043;28;46637;-57
2023/06/06 08:22:38;;;;;;;;;43.20;34.80;;;;;;;;5053679;28;46018;-54
2023/06/06 08:25:05;;;;;;;;;38.40;34.00;;;;;;;;5054596;28;45440;-56
2023/06/06 08:27:31;;;;;;;;;36.40;31.80;;;;;;;;5059439;28;45390;-57
2023/06/06 08:29:56;;;;;;;;;45.00;34.50;;;;;;;;5051880;28;46420;-56
2023/06/06 08:32:21;;;;;;;;;40.25;34.75;;;;;;;;5052999;28;45869;-58
2023/06/06 08:34:47;;;;;;;;;43.50;35.50;;;;;;;;5050544;28;45437;-57
2023/06/06 08:37:13;;;;;;;;;40.75;35.25;;;;;;;;5053335;28;45810;-58
2023/06/06 08:39:38;;;;;;;;;37.75;31.75;;;;;;;;5068765;28;46590;-59
2023/06/06 08:42:04;;;;;;;;;41.25;33.00;;;;;;;;5053560;28;45554;-57
2023/06/06 08:44:30;;;;;;;;;37.75;32.00;;;;;;;;5069452;28;45525;-59
2023/06/06 08:46:57;;;;;;;;;38.00;33.50;;;;;;;;5053386;28;45371;-59
2023/06/06 08:49:23;;;;;;;;;38.40;33.60;;;;;;;;5027514;28;45651;-59
2023/06/06 08:51:49;;;;;;;;;36.25;31.50;;;;;;;;5052662;28;45692;-58
2023/06/06 08:54:14;;;;;;;;;34.50;28.00;;;;;;;;5069980;28;45357;-59
2023/06/06 08:56:43;;;;;;;;;38.50;32.50;;;;;;;;5054551;28;45785;-58
2023/06/06 08:59:10;;;;;;;;;33.80;29.80;;;;;;;;5052531;28;45625;-57
2023/06/06 09:01:36;;;;;;;;;35.40;32.00;;;;;;;;5053675;28;45437;-59
2023/06/06 09:04:02;;;;;;;;;41.60;33.20;;;;;;;;5052554;28;45448;-58
2023/06/06 09:06:27;;;;;;;;;33.50;31.75;;;;;;;;5052680;28;45320;-57
2023/06/06 09:08:52;;;;;;;;;45.25;34.25;;;;;;;;5052554;28;45951;-57
2023/06/06 09:11:18;;;;;;;;;35.75;32.50;;;;;;;;5052362;28;45699;-58
2023/06/06 09:13:43;;;;;;;;;33.75;32.00;;;;;;;;5053984;28;45300;-58
2023/06/06 09:16:09;;;;;;;;;31.25;31.00;;;;;;;;5069321;28;45317;-59
2023/06/06 09:18:35;;;;;;;;;40.50;32.75;;;;;;;;5053810;28;45381;-55
2023/06/06 09:21:01;;;;;;;;;34.40;31.40;;;;;;;;5053530;28;45695;-56
2023/06/06 09:23:30;;;;;;;;;41.25;32.75;;;;;;;;5052546;28;45859;-54
2023/06/06 09:25:55;;;;;;;;;37.60;33.60;;;;;;;;5034632;28;45393;-56
2023/06/06 09:28:20;;;;;;;;;42.75;35.75;;;;;;;;5033529;28;46595;-55
2023/06/06 09:30:46;;;;;;;;;40.00;33.75;;;;;;;;5035779;28;45413;-56
2023/06/06 09:33:11;;;;;;;;;35.50;31.00;;;;;;;;5053582;28;45386;-54
2023/06/06 09:35:37;;;;;;;;;32.50;30.25;;;;;;;;5052201;28;45756;-58
2023/06/06 09:38:06;;;;;;;;;37.75;32.00;;;;;;;;5053477;28;46793;-55
2023/06/06 09:40:33;;;;;;;;;31.00;29.40;;;;;;;;5044948;28;45907;-53
2023/06/06 09:42:58;;;;;;;;;28.20;24.80;;;;;;;;5039262;28;45378;-54
2023/06/06 09:45:24;;;;;;;;;34.00;28.25;;;;;;;;5037985;28;45464;-58
2023/06/06 09:47:50;;;;;;;;;37.00;31.80;;;;;;;;5051282;28;48259;-57
2023/06/06 09:50:16;;;;;;;;;33.50;28.75;;;;;;;;5029812;28;45744;-56
2023/06/06 09:52:41;;;;;;;;;31.20;30.80;;;;;;;;5050663;28;45875;-57
2023/06/06 09:55:11;;;;;;;;;29.00;28.25;;;;;;;;5053146;28;45451;-56
2023/06/06 09:57:36;;;;;;;;;29.00;26.40;;;;;;;;5051724;28;46178;-58
2023/06/06 10:00:23;;;;;;;;;34.50;27.25;;;;;;;;5050521;28;45605;-56
2023/06/06 10:02:48;;;;;;;;;28.60;28.40;;;;;;;;5052687;28;45702;-62
2023/06/06 10:05:15;;;;;;;;;38.25;27.25;;;;;;;;5035118;27;46025;-58
2023/06/06 10:07:41;;;;;;;;;33.40;28.20;;;;;;;;5040163;28;45522;-60
2023/06/06 10:10:10;;;;;;;;;29.20;28.40;;;;;;;;5039540;28;45510;-63
2023/06/06 10:12:35;;;;;;;;;32.20;28.60;;;;;;;;5051558;28;45835;-61
2023/06/06 10:15:01;;;;;;;;;30.50;28.50;;;;;;;;5048402;28;45632;-60
2023/06/06 10:17:26;;;;;;;;;30.75;28.25;;;;;;;;5029929;28;45665;-57
2023/06/06 10:19:51;;;;;;;;;32.00;28.50;;;;;;;;5042251;28;45465;-60
2023/06/06 10:22:17;;;;;;;;;29.25;25.50;;;;;;;;5052582;28;45467;-60
2023/06/06 10:24:42;;;;;;;;;33.25;30.00;;;;;;;;5053658;28;45614;-61
2023/06/06 10:27:12;;;;;;;;;33.75;29.75;;;;;;;;5053413;28;45375;-60
2023/06/06 10:29:47;;;;;;;;;33.00;28.80;;;;;;;;5053619;28;45486;-59
2023/06/06 10:32:17;;;;;;;;;27.00;26.60;;;;;;;;5055002;28;45757;-60
2023/06/06 10:34:47;;;;;;;;;31.20;27.80;;;;;;;;5057262;28;45254;-61
2023/06/06 10:37:16;;;;;;;;;32.00;28.00;;;;;;;;5073154;28;45696;-55
2023/06/06 10:39:47;;;;;;;;;31.40;27.00;;;;;;;;5072852;28;45328;-58
2023/06/06 10:42:13;;;;;;;;;31.60;30.00;;;;;;;;5057050;28;45327;-59
2023/06/06 10:44:44;;;;;;;;;27.25;26.50;;;;;;;;5037787;28;48431;-61
2023/06/06 10:47:27;;;;;;;;;29.80;27.20;;;;;;;;5054767;28;46244;-58
2023/06/06 10:50:02;;;;;;;;;26.40;25.00;;;;;;;;5056696;28;45378;-58
2023/06/06 10:52:27;;;;;;;;;27.60;24.00;;;;;;;;5056660;28;45325;-58
2023/06/06 10:54:53;;;;;;;;;22.25;21.25;;;;;;;;5057356;28;45340;-61
2023/06/06 10:57:18;;;;;;;;;26.00;23.50;;;;;;;;5054115;28;46137;-58
2023/06/06 10:59:43;;;;;;;;;26.75;22.25;;;;;;;;5072005;28;45339;-60
2023/06/06 11:02:12;;;;;;;;;33.75;29.25;;;;;;;;5071972;28;45409;-59
2023/06/06 11:04:37;;;;;;;;;27.80;21.80;;;;;;;;5062915;28;45411;-56
2023/06/06 11:07:14;;;;;;;;;29.25;23.25;;;;;;;;5056524;28;46078;-56
2023/06/06 11:09:39;;;;;;;;;27.40;24.40;;;;;;;;5036768;28;45343;-59
2023/06/06 11:12:14;;;;;;;;;29.00;28.50;;;;;;;;5018189;28;45293;-55
2023/06/06 11:14:58;;;;;;;;;27.00;26.40;;;;;;;;5036517;28;45332;-56
2023/06/06 11:17:27;;;;;;;;;25.60;25.60;;;;;;;;5036402;28;45764;-57
2023/06/06 11:19:54;;;;;;;;;28.00;24.60;;;;;;;;5039439;28;45436;-57
2023/06/06 11:22:20;;;;;;;;;27.40;24.00;;;;;;;;5034687;28;45524;-55
2023/06/06 11:24:45;;;;;;;;;24.80;22.80;;;;;;;;5036072;28;45403;-53
2023/06/06 11:27:11;;;;;;;;;28.50;24.00;;;;;;;;5036177;28;46178;-57
2023/06/06 11:29:36;;;;;;;;;26.50;24.50;;;;;;;;5036061;28;45408;-59
2023/06/06 11:32:02;;;;;;;;;24.25;22.75;;;;;;;;5039178;28;45804;-57
2023/06/06 11:34:30;;;;;;;;;18.50;18.25;;;;;;;;5056612;28;45553;-57
2023/06/06 11:36:56;;;;;;;;;24.20;22.20;;;;;;;;5054511;28;47375;-56
2023/06/06 11:39:21;;;;;;;;;17.25;16.75;;;;;;;;5054413;28;45302;-57
2023/06/06 11:41:47;;;;;;;;;20.50;20.50;;;;;;;;5069987;28;45326;-53
2023/06/06 11:44:14;;;;;;;;;20.20;17.40;;;;;;;;5048903;28;45856;-56
2023/06/06 11:46:52;;;;;;;;;19.80;19.80;;;;;;;;5055857;28;46044;-56
2023/06/06 11:49:18;;;;;;;;;17.20;17.20;;;;;;;;5068215;28;45816;-51
2023/06/06 11:51:43;;;;;;;;;20.00;20.00;;;;;;;;5054290;28;45347;-56
2023/06/06 11:54:12;;;;;;;;;19.50;19.25;;;;;;;;5056160;28;45706;-55
2023/06/06 11:56:38;;;;;;;;;19.00;18.40;;;;;;;;5054546;28;46472;-58
2023/06/06 11:59:03;;;;;;;;;19.25;19.25;;;;;;;;5055674;28;45296;-54
2023/06/06 12:01:28;;;;;;;;;20.00;18.75;;;;;;;;5071591;28;45408;-60
2023/06/06 12:03:53;;;;;;;;;22.75;21.25;;;;;;;;5054274;28;45451;-57
2023/06/06 12:06:20;;;;;;;;;27.50;22.25;;;;;;;;5042000;28;46270;-56
2023/06/06 12:08:46;;;;;;;;;21.00;18.00;;;;;;;;5053412;28;45487;-56
2023/06/06 12:11:24;;;;;;;;;22.00;20.75;;;;;;;;5055059;28;45395;-54
2023/06/06 12:13:50;;;;;;;;;20.20;17.80;;;;;;;;5055169;28;45307;-56
2023/06/06 12:16:26;;;;;;;;;19.50;16.75;;;;;;;;5054062;28;46675;-53
2023/06/06 12:18:52;;;;;;;;;25.00;21.40;;;;;;;;5054224;28;45403;-57
2023/06/06 12:21:17;;;;;;;;;24.00;19.00;;;;;;;;5046829;28;45459;-60
2023/06/06 12:23:43;;;;;;;;;18.50;16.00;;;;;;;;5035166;28;46008;-59
2023/06/06 12:26:11;;;;;;;;;21.60;18.20;;;;;;;;5032744;28;45633;-53
2023/06/06 12:28:38;;;;;;;;;16.80;12.00;;;;;;;;5051345;28;45433;-52
2023/06/06 12:31:22;;;;;;;;;16.20;14.00;;;;;;;;5051662;28;45349;-58
2023/06/06 12:33:47;;;;;;;;;16.80;16.20;;;;;;;;5043069;28;45670;-55
2023/06/06 12:36:19;;;;;;;;;16.25;16.25;;;;;;;;5033431;28;46520;-58
2023/06/06 12:38:52;;;;;;;;;17.20;16.00;;;;;;;;5032974;28;45475;-58
2023/06/06 12:41:17;;;;;;;;;13.20;13.20;;;;;;;;5032615;28;45895;-58
2023/06/06 12:43:43;;;;;;;;;14.50;14.25;;;;;;;;5030797;28;45444;-56
2023/06/06 12:46:08;;;;;;;;;15.00;13.00;;;;;;;;5046890;28;46638;-58
2023/06/06 12:48:33;;;;;;;;;13.50;12.75;;;;;;;;5051013;28;45460;-56
2023/06/06 12:50:59;;;;;;;;;18.50;15.75;;;;;;;;5051010;28;45750;-58
2023/06/06 12:53:25;;;;;;;;;18.50;16.25;;;;;;;;5050491;28;45792;-55
2023/06/06 12:55:50;;;;;;;;;15.00;12.75;;;;;;;;5051998;28;46916;-55
2023/06/06 12:58:17;;;;;;;;;16.50;15.75;;;;;;;;5049516;28;45511;-54
2023/06/06 13:00:42;;;;;;;;;15.40;14.40;;;;;;;;5051913;28;45888;-55
2023/06/06 13:03:10;;;;;;;;;18.50;15.75;;;;;;;;5050782;28;45970;-59
2023/06/06 13:05:35;;;;;;;;;17.40;13.20;;;;;;;;5039424;28;45869;-58
2023/06/06 13:08:01;;;;;;;;;14.00;13.50;;;;;;;;5051965;28;45408;-58
2023/06/06 13:10:26;;;;;;;;;13.25;12.00;;;;;;;;5050460;28;45438;-60
2023/06/06 13:12:53;;;;;;;;;16.75;13.25;;;;;;;;5051964;28;45419;-56
2023/06/06 13:15:18;;;;;;;;;15.40;11.80;;;;;;;;5030406;28;47269;-57
2023/06/06 13:17:43;;;;;;;;;16.25;14.25;;;;;;;;5037677;28;45687;-55
2023/06/06 13:20:10;;;;;;;;;17.00;14.00;;;;;;;;5051891;28;45434;-57
2023/06/06 13:22:35;;;;;;;;;15.40;13.80;;;;;;;;5053358;28;45414;-57
2023/06/06 13:25:01;;;;;;;;;13.75;12.25;;;;;;;;5051426;28;45661;-57
2023/06/06 13:27:26;;;;;;;;;15.00;14.75;;;;;;;;5043868;28;45492;-58
2023/06/06 13:29:51;;;;;;;;;13.00;11.75;;;;;;;;5053061;28;45435;-60
2023/06/06 13:32:16;;;;;;;;;29.50;20.50;;;;;;;;5068773;28;45342;-56
2023/06/06 13:34:42;;;;;;;;;12.00;11.75;;;;;;;;5052553;28;46639;-59
2023/06/06 13:37:07;;;;;;;;;11.50;11.00;;;;;;;;5053057;28;45407;-58
2023/06/06 13:39:32;;;;;;;;;12.75;10.75;;;;;;;;5053126;28;45404;-57
2023/06/06 13:41:58;;;;;;;;;13.25;13.25;;;;;;;;5053025;28;45552;-54
2023/06/06 13:44:23;;;;;;;;;16.75;12.50;;;;;;;;5052931;28;46378;-58
2023/06/06 13:46:48;;;;;;;;;12.25;10.00;;;;;;;;5053195;28;45752;-54
2023/06/06 13:49:16;;;;;;;;;11.25;10.25;;;;;;;;5051451;28;45445;-56
2023/06/06 13:51:42;;;;;;;;;11.00;9.00;;;;;;;;5053231;28;45860;-57
2023/06/06 13:54:07;;;;;;;;;12.50;11.50;;;;;;;;5051523;28;46905;-54
2023/06/06 13:56:34;;;;;;;;;9.75;8.25;;;;;;;;5051786;28;45379;-57
2023/06/06 13:59:00;;;;;;;;;10.20;9.00;;;;;;;;5052548;28;45545;-56
2023/06/06 14:01:25;;;;;;;;;9.25;9.25;;;;;;;;5052960;28;45457;-56
2023/06/06 14:03:51;;;;;;;;;9.50;9.25;;;;;;;;5052656;28;46098;-56
2023/06/06 14:06:16;;;;;;;;;9.50;8.00;;;;;;;;5052188;28;45431;-56
2023/06/06 14:08:41;;;;;;;;;10.00;10.00;;;;;;;;5051015;28;45442;-58
2023/06/06 14:11:10;;;;;;;;;10.00;9.00;;;;;;;;5054770;28;45306;-59
2023/06/06 14:13:36;;;;;;;;;7.60;7.60;;;;;;;;5054356;28;46706;-59